Nineveh, Pennsylvania
Current Conditions -  °F | °C
As of 2:15 PM on Friday 28 Nov 2014 (Local Time) from KAFJ Reporting Station
Overcast Overcast  
Wind Chill: 21°   Ceiling: 3400
Heat Index: 28°   Visibility: 10mi
Dew Point: 16°   Wind: 7mph
Humidity: 59%   Direction: 250°WSW
Pressure: 30.26"   Gusts: NA
Location:  39.96°N, 80.3°W
Report Text: KAFJ 281915Z 25006KT 10SM BKN034 OVC100 M02/M09 A3026 RMK AO1
Loading
Personal Weather Stations






























Interactive Weather Map New forecast layout! Learn more

10-Day Weather Forecast

Advertisements
Track Severe Weather on mobile